Hauptseite
METAR-TAF:

METAR-TAF

Flughäfen :

NATO-Flugplatz Geilenkirchen

Geilenkirchen, Deutschland

Breite: 50-57-39N, Länge: 006-2-33E, Höhe: 90 m

Beobachtung

Neuester Wetterbericht von vor 33 Minuten, um 15:50 UTC
Wind 6 kt aus West, variierte zwischen Süd/Südwest und Nordwest
Temperatur 16°C
Luftfeuchtigkeit 48%
Luftdruck 1020 hPa
Sichtweite 10 km oder mehr

METAR: ETNG 141550Z AUTO 28006KT 210V310 9999 FEW050/// BKN130/// OVC180/// 16/05 Q1020

Zeit: 18:23 (16:23 UTC)


TAF: fehlend

Wetterbeobachtungen und Prognosen von mehr als 4000 Flughäfen (METAR und TAF Bericht).

Die verfügbaren Stationen werden durch gelbe und rote Markierungen auf der Karte dargestellt.

Führen Sie die Maus auf sie, um den Namen der Station zu sehen.

Darauf klicken, um die Beobachtung von Wetterbeobachtungen und Prognosen zu sehen.

Um die Karte zu ändern : klicken Sie auf den grünen Tasten mit einem schwarzen Kreuz Zum Vergrößern, auf den grünen Button mit einem Gedankenstrich zu verkleinern, oder auf die grünen Pfeile für benachbarte Karten.


METAR-TAF: